sensor_id;sensor_type;location;lat;lon;timestamp;P1;durP1;ratioP1;P2;durP2;ratioP2
48363;SDS011;34170;54.364;18.582;2023-02-01T00:00:37;6.72;;;0.40;;
48363;SDS011;34170;54.364;18.582;2023-02-01T00:03:23;8.43;;;0.82;;
48363;SDS011;34170;54.364;18.582;2023-02-01T00:05:57;7.28;;;0.93;;
48363;SDS011;34170;54.364;18.582;2023-02-01T00:08:25;6.07;;;0.85;;
48363;SDS011;34170;54.364;18.582;2023-02-01T00:11:09;10.73;;;0.80;;
48363;SDS011;34170;54.364;18.582;2023-02-01T00:13:39;6.70;;;1.00;;
48363;SDS011;34170;54.364;18.582;2023-02-01T00:16:09;12.43;;;1.42;;
48363;SDS011;34170;54.364;18.582;2023-02-01T00:18:39;5.88;;;0.80;;
48363;SDS011;34170;54.364;18.582;2023-02-01T00:21:06;6.18;;;1.00;;
48363;SDS011;34170;54.364;18.582;2023-02-01T00:23:34;6.75;;;1.00;;
48363;SDS011;34170;54.364;18.582;2023-02-01T00:26:03;10.20;;;0.98;;
48363;SDS011;34170;54.364;18.582;2023-02-01T00:28:32;6.13;;;1.08;;
48363;SDS011;34170;54.364;18.582;2023-02-01T00:31:00;7.00;;;1.00;;
48363;SDS011;34170;54.364;18.582;2023-02-01T00:33:30;7.60;;;0.90;;
48363;SDS011;34170;54.364;18.582;2023-02-01T00:35:59;7.57;;;1.30;;
48363;SDS011;34170;54.364;18.582;2023-02-01T00:38:28;4.35;;;0.40;;
48363;SDS011;34170;54.364;18.582;2023-02-01T00:41:03;6.85;;;0.40;;
48363;SDS011;34170;54.364;18.582;2023-02-01T00:43:33;4.65;;;1.00;;
48363;SDS011;34170;54.364;18.582;2023-02-01T00:46:01;4.47;;;0.70;;
48363;SDS011;34170;54.364;18.582;2023-02-01T00:48:28;6.47;;;1.08;;
48363;SDS011;34170;54.364;18.582;2023-02-01T00:51:06;6.05;;;0.85;;
48363;SDS011;34170;54.364;18.582;2023-02-01T00:53:35;3.13;;;0.63;;
48363;SDS011;34170;54.364;18.582;2023-02-01T00:56:03;5.60;;;0.45;;
48363;SDS011;34170;54.364;18.582;2023-02-01T00:58:32;7.90;;;1.73;;
48363;SDS011;34170;54.364;18.582;2023-02-01T01:01:10;5.20;;;0.47;;
48363;SDS011;34170;54.364;18.582;2023-02-01T01:03:44;9.25;;;0.85;;
48363;SDS011;34170;54.364;18.582;2023-02-01T01:06:15;10.93;;;1.23;;
48363;SDS011;34170;54.364;18.582;2023-02-01T01:08:46;7.15;;;1.83;;
48363;SDS011;34170;54.364;18.582;2023-02-01T01:11:15;5.60;;;0.57;;
48363;SDS011;34170;54.364;18.582;2023-02-01T01:13:47;7.43;;;0.70;;
48363;SDS011;34170;54.364;18.582;2023-02-01T01:16:15;3.78;;;0.50;;
48363;SDS011;34170;54.364;18.582;2023-02-01T01:18:43;7.82;;;0.75;;
48363;SDS011;34170;54.364;18.582;2023-02-01T01:21:11;7.00;;;0.85;;
48363;SDS011;34170;54.364;18.582;2023-02-01T01:23:41;7.78;;;1.13;;
48363;SDS011;34170;54.364;18.582;2023-02-01T01:26:10;11.15;;;3.92;;
48363;SDS011;34170;54.364;18.582;2023-02-01T01:28:41;8.13;;;1.33;;
48363;SDS011;34170;54.364;18.582;2023-02-01T01:31:09;7.68;;;0.80;;
48363;SDS011;34170;54.364;18.582;2023-02-01T01:33:38;6.85;;;1.45;;
48363;SDS011;34170;54.364;18.582;2023-02-01T01:36:07;7.35;;;0.75;;
48363;SDS011;34170;54.364;18.582;2023-02-01T01:38:39;5.60;;;1.02;;
48363;SDS011;34170;54.364;18.582;2023-02-01T01:41:08;5.68;;;0.82;;
48363;SDS011;34170;54.364;18.582;2023-02-01T01:43:50;5.93;;;0.75;;
48363;SDS011;34170;54.364;18.582;2023-02-01T01:49:08;8.68;;;0.90;;
48363;SDS011;34170;54.364;18.582;2023-02-01T01:51:54;9.88;;;0.80;;
48363;SDS011;34170;54.364;18.582;2023-02-01T01:54:31;6.82;;;0.73;;
48363;SDS011;34170;54.364;18.582;2023-02-01T01:57:05;6.50;;;1.10;;
48363;SDS011;34170;54.364;18.582;2023-02-01T01:59:36;8.10;;;0.98;;
48363;SDS011;34170;54.364;18.582;2023-02-01T02:02:06;11.25;;;1.08;;
48363;SDS011;34170;54.364;18.582;2023-02-01T02:04:34;6.38;;;0.70;;
48363;SDS011;34170;54.364;18.582;2023-02-01T02:07:08;15.45;;;1.73;;
48363;SDS011;34170;54.364;18.582;2023-02-01T02:09:39;4.80;;;0.95;;
48363;SDS011;34170;54.364;18.582;2023-02-01T02:12:13;11.82;;;1.15;;
48363;SDS011;34170;54.364;18.582;2023-02-01T02:14:41;8.05;;;1.10;;
48363;SDS011;34170;54.364;18.582;2023-02-01T02:34:40;23.73;;;1.30;;
48363;SDS011;34170;54.364;18.582;2023-02-01T02:37:37;6.53;;;2.08;;
48363;SDS011;34170;54.364;18.582;2023-02-01T02:40:14;10.68;;;1.88;;
48363;SDS011;34170;54.364;18.582;2023-02-01T02:56:58;10.27;;;1.00;;
48363;SDS011;34170;54.364;18.582;2023-02-01T02:59:48;2.65;;;0.40;;
48363;SDS011;34170;54.364;18.582;2023-02-01T03:02:34;5.75;;;0.63;;
48363;SDS011;34170;54.364;18.582;2023-02-01T03:05:20;3.00;;;0.20;;
48363;SDS011;34170;54.364;18.582;2023-02-01T03:13:02;9.57;;;1.05;;
48363;SDS011;34170;54.364;18.582;2023-02-01T03:18:45;10.00;;;0.90;;
48363;SDS011;34170;54.364;18.582;2023-02-01T03:21:21;9.15;;;1.20;;
48363;SDS011;34170;54.364;18.582;2023-02-01T03:24:01;6.93;;;1.02;;
48363;SDS011;34170;54.364;18.582;2023-02-01T03:26:32;6.78;;;0.82;;
48363;SDS011;34170;54.364;18.582;2023-02-01T03:29:11;7.50;;;1.13;;
48363;SDS011;34170;54.364;18.582;2023-02-01T03:31:46;8.23;;;0.90;;
48363;SDS011;34170;54.364;18.582;2023-02-01T03:34:14;8.52;;;1.23;;
48363;SDS011;34170;54.364;18.582;2023-02-01T03:36:50;7.55;;;0.93;;
48363;SDS011;34170;54.364;18.582;2023-02-01T03:39:41;4.20;;;0.45;;
48363;SDS011;34170;54.364;18.582;2023-02-01T03:42:16;8.32;;;1.05;;
48363;SDS011;34170;54.364;18.582;2023-02-01T03:44:49;10.55;;;1.17;;
48363;SDS011;34170;54.364;18.582;2023-02-01T03:47:25;7.95;;;1.35;;
48363;SDS011;34170;54.364;18.582;2023-02-01T03:50:07;6.70;;;0.57;;
48363;SDS011;34170;54.364;18.582;2023-02-01T03:52:40;6.05;;;0.73;;
48363;SDS011;34170;54.364;18.582;2023-02-01T03:55:15;9.25;;;1.25;;
48363;SDS011;34170;54.364;18.582;2023-02-01T03:57:46;10.52;;;0.73;;
48363;SDS011;34170;54.364;18.582;2023-02-01T04:00:30;5.78;;;0.73;;
48363;SDS011;34170;54.364;18.582;2023-02-01T04:02:58;9.55;;;1.65;;
48363;SDS011;34170;54.364;18.582;2023-02-01T04:05:26;10.15;;;2.60;;
48363;SDS011;34170;54.364;18.582;2023-02-01T04:07:57;8.50;;;0.77;;
48363;SDS011;34170;54.364;18.582;2023-02-01T04:10:25;6.10;;;0.70;;
48363;SDS011;34170;54.364;18.582;2023-02-01T04:12:53;7.75;;;0.85;;
48363;SDS011;34170;54.364;18.582;2023-02-01T04:15:20;7.40;;;1.30;;
48363;SDS011;34170;54.364;18.582;2023-02-01T04:17:48;5.80;;;0.68;;
48363;SDS011;34170;54.364;18.582;2023-02-01T04:20:15;8.00;;;0.80;;
48363;SDS011;34170;54.364;18.582;2023-02-01T04:22:43;13.70;;;1.55;;
48363;SDS011;34170;54.364;18.582;2023-02-01T04:25:10;8.43;;;1.55;;
48363;SDS011;34170;54.364;18.582;2023-02-01T04:27:38;8.98;;;1.25;;
48363;SDS011;34170;54.364;18.582;2023-02-01T04:30:04;10.30;;;1.20;;
48363;SDS011;34170;54.364;18.582;2023-02-01T04:32:37;8.70;;;1.20;;
48363;SDS011;34170;54.364;18.582;2023-02-01T04:35:05;10.60;;;1.00;;
48363;SDS011;34170;54.364;18.582;2023-02-01T04:37:33;14.73;;;1.83;;
48363;SDS011;34170;54.364;18.582;2023-02-01T04:40:01;10.30;;;1.50;;
48363;SDS011;34170;54.364;18.582;2023-02-01T04:42:30;13.00;;;2.03;;
48363;SDS011;34170;54.364;18.582;2023-02-01T04:44:58;20.27;;;2.80;;
48363;SDS011;34170;54.364;18.582;2023-02-01T04:47:25;15.43;;;1.65;;
48363;SDS011;34170;54.364;18.582;2023-02-01T04:49:53;20.17;;;2.63;;
48363;SDS011;34170;54.364;18.582;2023-02-01T04:52:20;13.63;;;1.85;;
48363;SDS011;34170;54.364;18.582;2023-02-01T04:54:48;10.43;;;1.83;;
48363;SDS011;34170;54.364;18.582;2023-02-01T04:57:15;8.73;;;1.35;;
48363;SDS011;34170;54.364;18.582;2023-02-01T04:59:42;15.88;;;2.30;;
48363;SDS011;34170;54.364;18.582;2023-02-01T05:02:10;13.35;;;2.05;;
48363;SDS011;34170;54.364;18.582;2023-02-01T05:04:37;10.45;;;1.90;;
48363;SDS011;34170;54.364;18.582;2023-02-01T05:07:05;13.13;;;2.33;;
48363;SDS011;34170;54.364;18.582;2023-02-01T05:09:32;14.10;;;1.65;;
48363;SDS011;34170;54.364;18.582;2023-02-01T05:11:59;18.80;;;3.90;;
48363;SDS011;34170;54.364;18.582;2023-02-01T05:14:45;10.45;;;1.15;;
48363;SDS011;34170;54.364;18.582;2023-02-01T05:17:14;5.28;;;0.65;;
48363;SDS011;34170;54.364;18.582;2023-02-01T05:19:42;6.78;;;0.75;;
48363;SDS011;34170;54.364;18.582;2023-02-01T05:22:09;8.30;;;0.88;;
48363;SDS011;34170;54.364;18.582;2023-02-01T05:24:37;12.02;;;1.42;;
48363;SDS011;34170;54.364;18.582;2023-02-01T05:27:04;11.55;;;1.30;;
48363;SDS011;34170;54.364;18.582;2023-02-01T05:29:32;7.25;;;1.63;;
48363;SDS011;34170;54.364;18.582;2023-02-01T05:31:59;13.65;;;1.60;;
48363;SDS011;34170;54.364;18.582;2023-02-01T05:34:46;4.65;;;1.02;;
48363;SDS011;34170;54.364;18.582;2023-02-01T05:37:14;6.25;;;1.08;;
48363;SDS011;34170;54.364;18.582;2023-02-01T05:39:41;11.93;;;1.45;;
48363;SDS011;34170;54.364;18.582;2023-02-01T05:42:09;10.40;;;1.05;;
48363;SDS011;34170;54.364;18.582;2023-02-01T05:44:36;8.02;;;0.93;;
48363;SDS011;34170;54.364;18.582;2023-02-01T05:47:04;11.60;;;1.42;;
48363;SDS011;34170;54.364;18.582;2023-02-01T05:49:31;6.72;;;0.85;;
48363;SDS011;34170;54.364;18.582;2023-02-01T05:51:58;6.15;;;1.10;;
48363;SDS011;34170;54.364;18.582;2023-02-01T05:54:26;10.85;;;1.20;;
48363;SDS011;34170;54.364;18.582;2023-02-01T05:56:54;9.85;;;1.48;;
48363;SDS011;34170;54.364;18.582;2023-02-01T05:59:21;7.03;;;1.27;;
48363;SDS011;34170;54.364;18.582;2023-02-01T06:01:49;5.65;;;1.20;;
48363;SDS011;34170;54.364;18.582;2023-02-01T06:04:16;10.68;;;2.05;;
48363;SDS011;34170;54.364;18.582;2023-02-01T06:06:43;14.90;;;2.15;;
48363;SDS011;34170;54.364;18.582;2023-02-01T06:09:11;9.90;;;1.33;;
48363;SDS011;34170;54.364;18.582;2023-02-01T06:11:38;10.93;;;1.35;;
48363;SDS011;34170;54.364;18.582;2023-02-01T06:14:07;13.15;;;2.13;;
48363;SDS011;34170;54.364;18.582;2023-02-01T06:16:35;11.77;;;1.90;;
48363;SDS011;34170;54.364;18.582;2023-02-01T06:19:02;11.63;;;2.03;;
48363;SDS011;34170;54.364;18.582;2023-02-01T06:21:29;14.27;;;1.92;;
48363;SDS011;34170;54.364;18.582;2023-02-01T06:23:57;12.65;;;1.48;;
48363;SDS011;34170;54.364;18.582;2023-02-01T06:26:25;9.57;;;1.42;;
48363;SDS011;34170;54.364;18.582;2023-02-01T06:28:53;8.60;;;1.95;;
48363;SDS011;34170;54.364;18.582;2023-02-01T06:31:20;12.18;;;2.22;;
48363;SDS011;34170;54.364;18.582;2023-02-01T06:33:48;10.52;;;1.98;;
48363;SDS011;34170;54.364;18.582;2023-02-01T06:36:15;14.52;;;2.65;;
48363;SDS011;34170;54.364;18.582;2023-02-01T06:38:44;10.77;;;2.13;;
48363;SDS011;34170;54.364;18.582;2023-02-01T06:41:11;13.38;;;2.17;;
48363;SDS011;34170;54.364;18.582;2023-02-01T06:43:39;10.32;;;2.13;;
48363;SDS011;34170;54.364;18.582;2023-02-01T06:46:08;13.77;;;2.25;;
48363;SDS011;34170;54.364;18.582;2023-02-01T06:48:39;11.13;;;2.28;;
48363;SDS011;34170;54.364;18.582;2023-02-01T06:51:16;13.95;;;2.35;;
48363;SDS011;34170;54.364;18.582;2023-02-01T06:53:46;12.20;;;2.08;;
48363;SDS011;34170;54.364;18.582;2023-02-01T06:56:14;9.98;;;1.80;;
48363;SDS011;34170;54.364;18.582;2023-02-01T06:58:41;16.55;;;2.35;;
48363;SDS011;34170;54.364;18.582;2023-02-01T07:01:09;18.58;;;2.70;;
48363;SDS011;34170;54.364;18.582;2023-02-01T07:03:37;15.43;;;2.10;;
48363;SDS011;34170;54.364;18.582;2023-02-01T07:06:05;18.13;;;2.65;;
48363;SDS011;34170;54.364;18.582;2023-02-01T07:08:34;15.15;;;1.92;;
48363;SDS011;34170;54.364;18.582;2023-02-01T07:11:05;15.93;;;2.42;;
48363;SDS011;34170;54.364;18.582;2023-02-01T07:13:37;13.90;;;3.33;;
48363;SDS011;34170;54.364;18.582;2023-02-01T07:16:06;15.02;;;2.75;;
48363;SDS011;34170;54.364;18.582;2023-02-01T07:18:37;14.30;;;1.95;;
48363;SDS011;34170;54.364;18.582;2023-02-01T07:21:04;10.43;;;2.00;;
48363;SDS011;34170;54.364;18.582;2023-02-01T07:23:32;11.18;;;2.05;;
48363;SDS011;34170;54.364;18.582;2023-02-01T07:26:01;17.02;;;3.33;;
48363;SDS011;34170;54.364;18.582;2023-02-01T07:28:31;12.55;;;2.47;;
48363;SDS011;34170;54.364;18.582;2023-02-01T07:31:06;17.30;;;2.85;;
48363;SDS011;34170;54.364;18.582;2023-02-01T07:33:35;14.65;;;2.03;;
48363;SDS011;34170;54.364;18.582;2023-02-01T07:36:04;19.33;;;2.45;;
48363;SDS011;34170;54.364;18.582;2023-02-01T07:38:33;17.23;;;2.25;;
48363;SDS011;34170;54.364;18.582;2023-02-01T07:41:02;18.67;;;2.40;;
48363;SDS011;34170;54.364;18.582;2023-02-01T07:43:31;17.30;;;3.13;;
48363;SDS011;34170;54.364;18.582;2023-02-01T07:46:00;18.17;;;3.08;;
48363;SDS011;34170;54.364;18.582;2023-02-01T07:48:28;20.33;;;2.55;;
48363;SDS011;34170;54.364;18.582;2023-02-01T07:51:01;19.90;;;2.10;;
48363;SDS011;34170;54.364;18.582;2023-02-01T07:53:33;14.07;;;2.80;;
48363;SDS011;34170;54.364;18.582;2023-02-01T07:56:01;11.77;;;2.45;;
48363;SDS011;34170;54.364;18.582;2023-02-01T07:58:30;14.95;;;2.30;;
48363;SDS011;34170;54.364;18.582;2023-02-01T08:00:57;20.63;;;2.90;;
48363;SDS011;34170;54.364;18.582;2023-02-01T08:03:43;20.83;;;3.55;;
48363;SDS011;34170;54.364;18.582;2023-02-01T08:06:10;19.27;;;2.40;;
48363;SDS011;34170;54.364;18.582;2023-02-01T08:08:38;16.17;;;2.40;;
48363;SDS011;34170;54.364;18.582;2023-02-01T08:11:05;19.02;;;4.10;;
48363;SDS011;34170;54.364;18.582;2023-02-01T08:13:34;20.35;;;2.58;;
48363;SDS011;34170;54.364;18.582;2023-02-01T08:16:03;20.02;;;3.40;;
48363;SDS011;34170;54.364;18.582;2023-02-01T08:18:33;16.50;;;2.58;;
48363;SDS011;34170;54.364;18.582;2023-02-01T08:21:03;12.00;;;3.22;;
48363;SDS011;34170;54.364;18.582;2023-02-01T08:23:36;23.15;;;2.17;;
48363;SDS011;34170;54.364;18.582;2023-02-01T08:26:11;22.25;;;3.65;;
48363;SDS011;34170;54.364;18.582;2023-02-01T08:28:43;20.92;;;2.97;;
48363;SDS011;34170;54.364;18.582;2023-02-01T08:31:13;20.58;;;3.38;;
48363;SDS011;34170;54.364;18.582;2023-02-01T08:33:43;19.35;;;3.00;;
48363;SDS011;34170;54.364;18.582;2023-02-01T08:36:14;20.20;;;2.67;;
48363;SDS011;34170;54.364;18.582;2023-02-01T08:38:42;18.10;;;2.42;;
48363;SDS011;34170;54.364;18.582;2023-02-01T08:41:10;15.48;;;2.17;;
48363;SDS011;34170;54.364;18.582;2023-02-01T08:43:43;19.25;;;3.10;;
48363;SDS011;34170;54.364;18.582;2023-02-01T08:46:11;18.67;;;3.05;;
48363;SDS011;34170;54.364;18.582;2023-02-01T08:48:40;13.38;;;2.55;;
48363;SDS011;34170;54.364;18.582;2023-02-01T08:51:08;9.90;;;2.92;;
48363;SDS011;34170;54.364;18.582;2023-02-01T08:53:38;21.65;;;3.30;;
48363;SDS011;34170;54.364;18.582;2023-02-01T08:56:13;20.00;;;2.50;;
48363;SDS011;34170;54.364;18.582;2023-02-01T08:58:42;12.55;;;2.83;;
48363;SDS011;34170;54.364;18.582;2023-02-01T09:01:12;16.10;;;2.38;;
48363;SDS011;34170;54.364;18.582;2023-02-01T09:03:41;14.03;;;2.73;;
48363;SDS011;34170;54.364;18.582;2023-02-01T09:06:10;18.15;;;3.08;;
48363;SDS011;34170;54.364;18.582;2023-02-01T09:08:40;12.33;;;1.97;;
48363;SDS011;34170;54.364;18.582;2023-02-01T09:11:10;21.10;;;3.35;;
48363;SDS011;34170;54.364;18.582;2023-02-01T09:13:39;18.83;;;3.45;;
48363;SDS011;34170;54.364;18.582;2023-02-01T09:16:07;11.85;;;2.22;;
48363;SDS011;34170;54.364;18.582;2023-02-01T09:18:34;11.73;;;2.13;;
48363;SDS011;34170;54.364;18.582;2023-02-01T09:21:06;15.27;;;2.80;;
48363;SDS011;34170;54.364;18.582;2023-02-01T09:23:34;10.40;;;2.03;;
48363;SDS011;34170;54.364;18.582;2023-02-01T09:26:02;18.50;;;2.35;;
48363;SDS011;34170;54.364;18.582;2023-02-01T09:28:31;12.57;;;1.52;;
48363;SDS011;34170;54.364;18.582;2023-02-01T09:30:59;9.63;;;2.00;;
48363;SDS011;34170;54.364;18.582;2023-02-01T09:33:28;10.55;;;2.35;;
48363;SDS011;34170;54.364;18.582;2023-02-01T09:36:00;10.88;;;1.83;;
48363;SDS011;34170;54.364;18.582;2023-02-01T09:38:29;12.88;;;2.08;;
48363;SDS011;34170;54.364;18.582;2023-02-01T09:40:59;12.23;;;2.17;;
48363;SDS011;34170;54.364;18.582;2023-02-01T09:49:04;15.68;;;2.28;;
48363;SDS011;34170;54.364;18.582;2023-02-01T09:51:38;13.90;;;1.80;;
48363;SDS011;34170;54.364;18.582;2023-02-01T09:56:53;7.68;;;1.70;;
48363;SDS011;34170;54.364;18.582;2023-02-01T09:59:34;15.20;;;3.00;;
48363;SDS011;34170;54.364;18.582;2023-02-01T10:02:11;11.45;;;2.03;;
48363;SDS011;34170;54.364;18.582;2023-02-01T10:04:43;10.05;;;1.50;;
48363;SDS011;34170;54.364;18.582;2023-02-01T10:07:30;7.75;;;1.40;;
48363;SDS011;34170;54.364;18.582;2023-02-01T10:27:00;15.65;;;2.53;;
48363;SDS011;34170;54.364;18.582;2023-02-01T10:29:35;11.77;;;2.00;;
48363;SDS011;34170;54.364;18.582;2023-02-01T10:32:13;11.65;;;1.60;;
48363;SDS011;34170;54.364;18.582;2023-02-01T10:34:44;12.48;;;1.95;;
48363;SDS011;34170;54.364;18.582;2023-02-01T10:37:23;11.02;;;1.75;;
48363;SDS011;34170;54.364;18.582;2023-02-01T10:39:55;12.20;;;1.63;;
48363;SDS011;34170;54.364;18.582;2023-02-01T10:42:28;7.68;;;1.30;;
48363;SDS011;34170;54.364;18.582;2023-02-01T10:44:57;11.10;;;1.70;;
48363;SDS011;34170;54.364;18.582;2023-02-01T10:47:29;6.32;;;1.35;;
48363;SDS011;34170;54.364;18.582;2023-02-01T10:52:33;7.18;;;1.52;;
48363;SDS011;34170;54.364;18.582;2023-02-01T11:00:23;9.40;;;1.92;;
48363;SDS011;34170;54.364;18.582;2023-02-01T11:02:51;11.05;;;1.40;;
48363;SDS011;34170;54.364;18.582;2023-02-01T11:05:20;13.70;;;1.95;;
48363;SDS011;34170;54.364;18.582;2023-02-01T11:07:50;12.32;;;2.05;;
48363;SDS011;34170;54.364;18.582;2023-02-01T11:10:38;12.10;;;2.03;;
48363;SDS011;34170;54.364;18.582;2023-02-01T11:13:14;17.20;;;3.60;;
48363;SDS011;34170;54.364;18.582;2023-02-01T11:15:44;6.38;;;2.15;;
48363;SDS011;34170;54.364;18.582;2023-02-01T11:18:19;12.50;;;2.08;;
48363;SDS011;34170;54.364;18.582;2023-02-01T11:20:52;9.50;;;1.70;;
48363;SDS011;34170;54.364;18.582;2023-02-01T11:23:23;8.00;;;2.05;;
48363;SDS011;34170;54.364;18.582;2023-02-01T11:25:53;11.13;;;2.00;;
48363;SDS011;34170;54.364;18.582;2023-02-01T11:28:32;4.20;;;1.33;;
48363;SDS011;34170;54.364;18.582;2023-02-01T11:31:03;4.38;;;0.85;;
48363;SDS011;34170;54.364;18.582;2023-02-01T11:33:35;3.35;;;0.90;;
48363;SDS011;34170;54.364;18.582;2023-02-01T11:36:09;5.03;;;0.50;;
48363;SDS011;34170;54.364;18.582;2023-02-01T11:38:45;1.00;;;0.45;;
48363;SDS011;34170;54.364;18.582;2023-02-01T11:41:26;4.75;;;1.27;;
48363;SDS011;34170;54.364;18.582;2023-02-01T11:43:59;3.45;;;0.70;;
48363;SDS011;34170;54.364;18.582;2023-02-01T11:46:34;2.00;;;0.57;;
48363;SDS011;34170;54.364;18.582;2023-02-01T12:00:36;3.53;;;1.00;;
48363;SDS011;34170;54.364;18.582;2023-02-01T12:28:31;11.73;;;2.17;;
48363;SDS011;34170;54.364;18.582;2023-02-01T12:31:26;8.50;;;1.58;;
48363;SDS011;34170;54.364;18.582;2023-02-01T12:34:58;5.75;;;1.70;;
48363;SDS011;34170;54.364;18.582;2023-02-01T12:40:02;5.80;;;1.20;;
48363;SDS011;34170;54.364;18.582;2023-02-01T12:45:45;3.67;;;0.47;;
48363;SDS011;34170;54.364;18.582;2023-02-01T12:51:17;3.88;;;0.68;;
48363;SDS011;34170;54.364;18.582;2023-02-01T12:53:51;2.20;;;0.50;;
48363;SDS011;34170;54.364;18.582;2023-02-01T12:56:57;6.00;;;0.80;;
48363;SDS011;34170;54.364;18.582;2023-02-01T12:59:26;3.55;;;0.70;;
48363;SDS011;34170;54.364;18.582;2023-02-01T13:04:56;3.33;;;0.85;;
48363;SDS011;34170;54.364;18.582;2023-02-01T13:07:34;5.25;;;1.70;;
48363;SDS011;34170;54.364;18.582;2023-02-01T13:10:15;6.43;;;0.98;;
48363;SDS011;34170;54.364;18.582;2023-02-01T13:13:08;4.97;;;1.30;;
48363;SDS011;34170;54.364;18.582;2023-02-01T13:15:39;6.20;;;1.17;;
48363;SDS011;34170;54.364;18.582;2023-02-01T13:18:14;5.88;;;1.45;;
48363;SDS011;34170;54.364;18.582;2023-02-01T13:20:56;5.03;;;1.38;;
48363;SDS011;34170;54.364;18.582;2023-02-01T13:23:35;9.68;;;1.85;;
48363;SDS011;34170;54.364;18.582;2023-02-01T13:26:07;3.63;;;1.23;;
48363;SDS011;34170;54.364;18.582;2023-02-01T13:28:45;9.63;;;2.20;;
48363;SDS011;34170;54.364;18.582;2023-02-01T13:42:23;8.13;;;2.50;;
48363;SDS011;34170;54.364;18.582;2023-02-01T13:47:32;15.38;;;3.20;;
48363;SDS011;34170;54.364;18.582;2023-02-01T13:52:55;10.45;;;2.83;;
48363;SDS011;34170;54.364;18.582;2023-02-01T13:55:27;12.50;;;2.97;;
48363;SDS011;34170;54.364;18.582;2023-02-01T13:58:06;9.65;;;2.83;;
48363;SDS011;34170;54.364;18.582;2023-02-01T14:00:46;13.27;;;2.28;;
48363;SDS011;34170;54.364;18.582;2023-02-01T14:03:16;14.07;;;2.97;;
48363;SDS011;34170;54.364;18.582;2023-02-01T14:08:14;11.93;;;3.33;;
48363;SDS011;34170;54.364;18.582;2023-02-01T14:10:59;14.88;;;1.90;;
48363;SDS011;34170;54.364;18.582;2023-02-01T14:13:29;8.43;;;1.80;;
48363;SDS011;34170;54.364;18.582;2023-02-01T14:24:00;12.35;;;2.08;;
48363;SDS011;34170;54.364;18.582;2023-02-01T14:29:03;13.60;;;2.30;;
48363;SDS011;34170;54.364;18.582;2023-02-01T14:37:25;8.48;;;1.50;;
48363;SDS011;34170;54.364;18.582;2023-02-01T14:40:03;4.20;;;1.45;;
48363;SDS011;34170;54.364;18.582;2023-02-01T14:47:47;9.52;;;2.08;;
48363;SDS011;34170;54.364;18.582;2023-02-01T14:58:47;8.25;;;2.60;;
48363;SDS011;34170;54.364;18.582;2023-02-01T15:01:34;6.25;;;1.70;;
48363;SDS011;34170;54.364;18.582;2023-02-01T15:04:05;5.30;;;1.48;;
48363;SDS011;34170;54.364;18.582;2023-02-01T15:06:52;9.73;;;1.77;;
48363;SDS011;34170;54.364;18.582;2023-02-01T15:09:25;5.20;;;1.40;;
48363;SDS011;34170;54.364;18.582;2023-02-01T15:12:04;4.55;;;1.33;;
48363;SDS011;34170;54.364;18.582;2023-02-01T15:14:42;7.13;;;1.60;;
48363;SDS011;34170;54.364;18.582;2023-02-01T15:17:19;6.78;;;1.58;;
48363;SDS011;34170;54.364;18.582;2023-02-01T15:19:54;7.43;;;1.40;;
48363;SDS011;34170;54.364;18.582;2023-02-01T15:22:39;9.25;;;1.67;;
48363;SDS011;34170;54.364;18.582;2023-02-01T15:25:19;5.30;;;1.00;;
48363;SDS011;34170;54.364;18.582;2023-02-01T15:27:49;6.32;;;1.10;;
48363;SDS011;34170;54.364;18.582;2023-02-01T15:30:18;4.10;;;1.13;;
48363;SDS011;34170;54.364;18.582;2023-02-01T15:32:50;4.32;;;0.93;;
48363;SDS011;34170;54.364;18.582;2023-02-01T15:35:32;4.63;;;1.40;;
48363;SDS011;34170;54.364;18.582;2023-02-01T15:40:57;8.18;;;2.42;;
48363;SDS011;34170;54.364;18.582;2023-02-01T15:43:41;8.00;;;2.40;;
48363;SDS011;34170;54.364;18.582;2023-02-01T15:46:28;8.48;;;2.00;;
48363;SDS011;34170;54.364;18.582;2023-02-01T15:48:59;4.35;;;1.33;;
48363;SDS011;34170;54.364;18.582;2023-02-01T15:51:28;6.93;;;2.25;;
48363;SDS011;34170;54.364;18.582;2023-02-01T15:53:58;4.72;;;1.67;;
48363;SDS011;34170;54.364;18.582;2023-02-01T15:56:29;9.40;;;2.05;;
48363;SDS011;34170;54.364;18.582;2023-02-01T15:59:02;7.45;;;2.15;;
48363;SDS011;34170;54.364;18.582;2023-02-01T16:01:39;11.15;;;2.13;;
48363;SDS011;34170;54.364;18.582;2023-02-01T16:09:22;12.45;;;3.22;;
48363;SDS011;34170;54.364;18.582;2023-02-01T16:14:23;17.02;;;3.67;;
48363;SDS011;34170;54.364;18.582;2023-02-01T16:16:53;19.45;;;4.68;;
48363;SDS011;34170;54.364;18.582;2023-02-01T16:19:22;10.45;;;3.53;;
48363;SDS011;34170;54.364;18.582;2023-02-01T16:21:55;10.98;;;2.65;;
48363;SDS011;34170;54.364;18.582;2023-02-01T16:24:23;8.20;;;2.70;;
48363;SDS011;34170;54.364;18.582;2023-02-01T16:26:53;13.10;;;3.50;;
48363;SDS011;34170;54.364;18.582;2023-02-01T16:29:20;10.15;;;3.33;;
48363;SDS011;34170;54.364;18.582;2023-02-01T16:31:48;14.45;;;4.18;;
48363;SDS011;34170;54.364;18.582;2023-02-01T16:34:17;11.32;;;2.88;;
48363;SDS011;34170;54.364;18.582;2023-02-01T16:36:48;11.65;;;3.03;;
48363;SDS011;34170;54.364;18.582;2023-02-01T16:39:22;13.45;;;2.63;;
48363;SDS011;34170;54.364;18.582;2023-02-01T16:41:51;17.95;;;2.63;;
48363;SDS011;34170;54.364;18.582;2023-02-01T16:44:18;11.98;;;2.25;;
48363;SDS011;34170;54.364;18.582;2023-02-01T16:46:46;10.23;;;3.30;;
48363;SDS011;34170;54.364;18.582;2023-02-01T16:49:19;13.85;;;3.33;;
48363;SDS011;34170;54.364;18.582;2023-02-01T16:51:49;14.80;;;2.63;;
48363;SDS011;34170;54.364;18.582;2023-02-01T16:54:19;15.93;;;3.00;;
48363;SDS011;34170;54.364;18.582;2023-02-01T16:56:47;13.88;;;3.83;;
48363;SDS011;34170;54.364;18.582;2023-02-01T16:59:15;16.45;;;2.80;;
48363;SDS011;34170;54.364;18.582;2023-02-01T17:01:43;10.52;;;2.58;;
48363;SDS011;34170;54.364;18.582;2023-02-01T17:04:10;13.27;;;3.35;;
48363;SDS011;34170;54.364;18.582;2023-02-01T17:06:38;14.63;;;3.22;;
48363;SDS011;34170;54.364;18.582;2023-02-01T17:09:06;14.90;;;4.10;;
48363;SDS011;34170;54.364;18.582;2023-02-01T17:11:34;16.85;;;3.80;;
48363;SDS011;34170;54.364;18.582;2023-02-01T17:14:09;17.63;;;4.07;;
48363;SDS011;34170;54.364;18.582;2023-02-01T17:16:42;15.57;;;4.25;;
48363;SDS011;34170;54.364;18.582;2023-02-01T17:19:16;21.17;;;4.85;;
48363;SDS011;34170;54.364;18.582;2023-02-01T17:21:50;19.95;;;4.63;;
48363;SDS011;34170;54.364;18.582;2023-02-01T17:24:23;12.38;;;3.72;;
48363;SDS011;34170;54.364;18.582;2023-02-01T17:27:01;17.98;;;5.15;;
48363;SDS011;34170;54.364;18.582;2023-02-01T17:29:30;19.95;;;4.95;;
48363;SDS011;34170;54.364;18.582;2023-02-01T17:31:57;12.40;;;4.18;;
48363;SDS011;34170;54.364;18.582;2023-02-01T17:34:26;18.85;;;4.20;;
48363;SDS011;34170;54.364;18.582;2023-02-01T17:36:54;12.35;;;3.28;;
48363;SDS011;34170;54.364;18.582;2023-02-01T17:39:21;15.70;;;3.97;;
48363;SDS011;34170;54.364;18.582;2023-02-01T17:42:09;17.63;;;4.22;;
48363;SDS011;34170;54.364;18.582;2023-02-01T17:44:38;17.40;;;4.68;;
48363;SDS011;34170;54.364;18.582;2023-02-01T17:47:05;19.42;;;4.28;;
48363;SDS011;34170;54.364;18.582;2023-02-01T17:49:32;16.63;;;4.35;;
48363;SDS011;34170;54.364;18.582;2023-02-01T17:52:01;15.38;;;4.18;;
48363;SDS011;34170;54.364;18.582;2023-02-01T17:54:29;21.33;;;5.22;;
48363;SDS011;34170;54.364;18.582;2023-02-01T17:56:56;17.92;;;3.70;;
48363;SDS011;34170;54.364;18.582;2023-02-01T17:59:29;15.68;;;3.85;;